sensor_id;sensor_type;location;lat;lon;timestamp;P1;durP1;ratioP1;P2;durP2;ratioP2
60169;SDS011;46042;49.444;6.862;2023-10-09T00:01:44;10.25;;;4.45;;
60169;SDS011;46042;49.444;6.862;2023-10-09T00:04:13;6.65;;;4.13;;
60169;SDS011;46042;49.444;6.862;2023-10-09T00:06:43;9.20;;;4.50;;
60169;SDS011;46042;49.444;6.862;2023-10-09T00:09:10;8.27;;;4.43;;
60169;SDS011;46042;49.444;6.862;2023-10-09T00:11:49;14.23;;;4.07;;
60169;SDS011;46042;49.444;6.862;2023-10-09T00:14:29;6.50;;;3.92;;
60169;SDS011;46042;49.444;6.862;2023-10-09T00:17:00;7.28;;;3.90;;
60169;SDS011;46042;49.444;6.862;2023-10-09T00:19:35;7.57;;;4.13;;
60169;SDS011;46042;49.444;6.862;2023-10-09T00:22:03;10.88;;;4.75;;
60169;SDS011;46042;49.444;6.862;2023-10-09T00:24:46;7.90;;;4.75;;
60169;SDS011;46042;49.444;6.862;2023-10-09T00:27:16;9.60;;;5.13;;
60169;SDS011;46042;49.444;6.862;2023-10-09T00:29:48;9.73;;;5.10;;
60169;SDS011;46042;49.444;6.862;2023-10-09T00:32:15;9.07;;;4.90;;
60169;SDS011;46042;49.444;6.862;2023-10-09T00:34:43;13.80;;;5.78;;
60169;SDS011;46042;49.444;6.862;2023-10-09T00:37:09;8.15;;;4.95;;
60169;SDS011;46042;49.444;6.862;2023-10-09T00:39:43;8.90;;;4.90;;
60169;SDS011;46042;49.444;6.862;2023-10-09T00:42:11;10.85;;;4.78;;
60169;SDS011;46042;49.444;6.862;2023-10-09T00:44:39;9.45;;;4.70;;
60169;SDS011;46042;49.444;6.862;2023-10-09T00:47:09;9.30;;;4.50;;
60169;SDS011;46042;49.444;6.862;2023-10-09T00:49:49;10.30;;;4.63;;
60169;SDS011;46042;49.444;6.862;2023-10-09T00:52:20;7.80;;;4.32;;
60169;SDS011;46042;49.444;6.862;2023-10-09T00:55:00;8.98;;;4.72;;
60169;SDS011;46042;49.444;6.862;2023-10-09T00:57:34;7.53;;;4.00;;
60169;SDS011;46042;49.444;6.862;2023-10-09T01:00:04;9.07;;;3.92;;
60169;SDS011;46042;49.444;6.862;2023-10-09T01:02:38;9.43;;;4.20;;
60169;SDS011;46042;49.444;6.862;2023-10-09T01:05:09;10.77;;;4.43;;
60169;SDS011;46042;49.444;6.862;2023-10-09T01:07:56;7.25;;;4.45;;
60169;SDS011;46042;49.444;6.862;2023-10-09T01:10:24;9.43;;;4.95;;
60169;SDS011;46042;49.444;6.862;2023-10-09T01:12:59;9.90;;;5.03;;
60169;SDS011;46042;49.444;6.862;2023-10-09T01:15:26;9.88;;;4.53;;
60169;SDS011;46042;49.444;6.862;2023-10-09T01:18:12;9.10;;;4.57;;
60169;SDS011;46042;49.444;6.862;2023-10-09T01:20:39;11.07;;;4.93;;
60169;SDS011;46042;49.444;6.862;2023-10-09T01:23:12;8.27;;;4.57;;
60169;SDS011;46042;49.444;6.862;2023-10-09T01:25:39;8.50;;;5.00;;
60169;SDS011;46042;49.444;6.862;2023-10-09T01:28:10;8.60;;;4.80;;
60169;SDS011;46042;49.444;6.862;2023-10-09T01:30:42;7.53;;;4.72;;
60169;SDS011;46042;49.444;6.862;2023-10-09T01:33:09;6.40;;;4.00;;
60169;SDS011;46042;49.444;6.862;2023-10-09T01:35:48;12.68;;;5.28;;
60169;SDS011;46042;49.444;6.862;2023-10-09T01:38:17;6.75;;;4.40;;
60169;SDS011;46042;49.444;6.862;2023-10-09T01:40:43;7.32;;;4.60;;
60169;SDS011;46042;49.444;6.862;2023-10-09T01:43:11;6.75;;;4.32;;
60169;SDS011;46042;49.444;6.862;2023-10-09T01:45:38;10.18;;;4.60;;
60169;SDS011;46042;49.444;6.862;2023-10-09T01:48:14;6.82;;;4.18;;
60169;SDS011;46042;49.444;6.862;2023-10-09T01:50:50;7.78;;;4.35;;
60169;SDS011;46042;49.444;6.862;2023-10-09T01:53:16;9.32;;;3.60;;
60169;SDS011;46042;49.444;6.862;2023-10-09T01:55:48;7.70;;;4.18;;
60169;SDS011;46042;49.444;6.862;2023-10-09T01:58:21;9.70;;;4.50;;
60169;SDS011;46042;49.444;6.862;2023-10-09T02:00:48;8.15;;;4.20;;
60169;SDS011;46042;49.444;6.862;2023-10-09T02:03:23;8.75;;;4.22;;
60169;SDS011;46042;49.444;6.862;2023-10-09T02:05:51;8.73;;;3.75;;
60169;SDS011;46042;49.444;6.862;2023-10-09T02:08:20;8.38;;;4.00;;
60169;SDS011;46042;49.444;6.862;2023-10-09T02:10:53;9.73;;;3.92;;
60169;SDS011;46042;49.444;6.862;2023-10-09T02:13:22;9.45;;;3.55;;
60169;SDS011;46042;49.444;6.862;2023-10-09T02:15:56;6.80;;;3.90;;
60169;SDS011;46042;49.444;6.862;2023-10-09T02:18:40;5.85;;;4.18;;
60169;SDS011;46042;49.444;6.862;2023-10-09T02:21:19;7.15;;;3.78;;
60169;SDS011;46042;49.444;6.862;2023-10-09T02:23:57;5.55;;;3.75;;
60169;SDS011;46042;49.444;6.862;2023-10-09T02:26:23;5.05;;;3.08;;
60169;SDS011;46042;49.444;6.862;2023-10-09T02:29:06;8.85;;;3.63;;
60169;SDS011;46042;49.444;6.862;2023-10-09T02:31:38;8.77;;;3.63;;
60169;SDS011;46042;49.444;6.862;2023-10-09T02:34:10;5.80;;;3.20;;
60169;SDS011;46042;49.444;6.862;2023-10-09T02:36:38;6.05;;;3.25;;
60169;SDS011;46042;49.444;6.862;2023-10-09T02:39:09;7.75;;;3.30;;
60169;SDS011;46042;49.444;6.862;2023-10-09T02:41:53;5.90;;;3.65;;
60169;SDS011;46042;49.444;6.862;2023-10-09T02:44:47;6.32;;;3.63;;
60169;SDS011;46042;49.444;6.862;2023-10-09T02:47:17;8.57;;;3.90;;
60169;SDS011;46042;49.444;6.862;2023-10-09T02:49:51;7.53;;;3.88;;
60169;SDS011;46042;49.444;6.862;2023-10-09T02:52:18;7.15;;;3.15;;
60169;SDS011;46042;49.444;6.862;2023-10-09T02:54:51;6.85;;;3.70;;
60169;SDS011;46042;49.444;6.862;2023-10-09T02:57:26;6.93;;;3.92;;
60169;SDS011;46042;49.444;6.862;2023-10-09T03:00:05;9.32;;;3.60;;
60169;SDS011;46042;49.444;6.862;2023-10-09T03:02:35;9.07;;;3.38;;
60169;SDS011;46042;49.444;6.862;2023-10-09T03:05:06;7.50;;;3.60;;
60169;SDS011;46042;49.444;6.862;2023-10-09T03:07:38;7.28;;;3.70;;
60169;SDS011;46042;49.444;6.862;2023-10-09T03:10:08;8.95;;;3.90;;
60169;SDS011;46042;49.444;6.862;2023-10-09T03:12:36;8.68;;;4.95;;
60169;SDS011;46042;49.444;6.862;2023-10-09T03:15:03;7.82;;;4.28;;
60169;SDS011;46042;49.444;6.862;2023-10-09T03:17:34;8.30;;;5.63;;
60169;SDS011;46042;49.444;6.862;2023-10-09T03:20:07;9.85;;;5.75;;
60169;SDS011;46042;49.444;6.862;2023-10-09T03:22:39;12.02;;;6.13;;
60169;SDS011;46042;49.444;6.862;2023-10-09T03:25:06;11.02;;;6.20;;
60169;SDS011;46042;49.444;6.862;2023-10-09T03:27:43;8.93;;;5.82;;
60169;SDS011;46042;49.444;6.862;2023-10-09T03:30:13;10.18;;;6.05;;
60169;SDS011;46042;49.444;6.862;2023-10-09T03:32:50;9.30;;;5.88;;
60169;SDS011;46042;49.444;6.862;2023-10-09T03:35:18;12.43;;;6.00;;
60169;SDS011;46042;49.444;6.862;2023-10-09T03:37:56;13.00;;;6.32;;
60169;SDS011;46042;49.444;6.862;2023-10-09T03:40:27;8.27;;;5.28;;
60169;SDS011;46042;49.444;6.862;2023-10-09T03:42:54;8.70;;;5.53;;
60169;SDS011;46042;49.444;6.862;2023-10-09T03:45:20;10.18;;;5.38;;
60169;SDS011;46042;49.444;6.862;2023-10-09T03:47:54;17.30;;;6.47;;
60169;SDS011;46042;49.444;6.862;2023-10-09T03:50:28;11.13;;;5.50;;
60169;SDS011;46042;49.444;6.862;2023-10-09T03:53:04;8.82;;;4.28;;
60169;SDS011;46042;49.444;6.862;2023-10-09T03:55:35;12.43;;;5.13;;
60169;SDS011;46042;49.444;6.862;2023-10-09T03:58:05;9.13;;;4.80;;
60169;SDS011;46042;49.444;6.862;2023-10-09T04:00:38;11.38;;;5.13;;
60169;SDS011;46042;49.444;6.862;2023-10-09T04:03:12;8.43;;;5.13;;
60169;SDS011;46042;49.444;6.862;2023-10-09T04:05:41;8.10;;;5.40;;
60169;SDS011;46042;49.444;6.862;2023-10-09T04:08:10;9.13;;;4.55;;
60169;SDS011;46042;49.444;6.862;2023-10-09T04:10:55;8.77;;;4.72;;
60169;SDS011;46042;49.444;6.862;2023-10-09T04:13:28;10.45;;;5.28;;
60169;SDS011;46042;49.444;6.862;2023-10-09T04:16:01;10.50;;;4.35;;
60169;SDS011;46042;49.444;6.862;2023-10-09T04:18:37;9.70;;;4.60;;
60169;SDS011;46042;49.444;6.862;2023-10-09T04:21:06;8.88;;;4.72;;
60169;SDS011;46042;49.444;6.862;2023-10-09T04:23:46;11.30;;;4.95;;
60169;SDS011;46042;49.444;6.862;2023-10-09T04:26:36;9.43;;;5.07;;
60169;SDS011;46042;49.444;6.862;2023-10-09T04:29:03;11.18;;;5.18;;
60169;SDS011;46042;49.444;6.862;2023-10-09T04:31:30;7.28;;;4.57;;
60169;SDS011;46042;49.444;6.862;2023-10-09T04:34:04;8.20;;;4.55;;
60169;SDS011;46042;49.444;6.862;2023-10-09T04:36:50;7.15;;;4.45;;
60169;SDS011;46042;49.444;6.862;2023-10-09T04:39:20;11.77;;;4.18;;
60169;SDS011;46042;49.444;6.862;2023-10-09T04:41:52;13.07;;;4.50;;
60169;SDS011;46042;49.444;6.862;2023-10-09T04:44:25;7.55;;;4.30;;
60169;SDS011;46042;49.444;6.862;2023-10-09T04:47:02;11.32;;;4.70;;
60169;SDS011;46042;49.444;6.862;2023-10-09T04:49:40;10.02;;;4.63;;
60169;SDS011;46042;49.444;6.862;2023-10-09T04:52:16;8.63;;;4.28;;
60169;SDS011;46042;49.444;6.862;2023-10-09T04:54:57;8.80;;;4.90;;
60169;SDS011;46042;49.444;6.862;2023-10-09T04:57:34;8.25;;;4.10;;
60169;SDS011;46042;49.444;6.862;2023-10-09T05:00:18;8.63;;;5.07;;
60169;SDS011;46042;49.444;6.862;2023-10-09T05:02:51;13.85;;;7.13;;
60169;SDS011;46042;49.444;6.862;2023-10-09T05:05:23;10.52;;;7.10;;
60169;SDS011;46042;49.444;6.862;2023-10-09T05:10:48;12.27;;;6.82;;
60169;SDS011;46042;49.444;6.862;2023-10-09T05:13:45;11.27;;;6.20;;
60169;SDS011;46042;49.444;6.862;2023-10-09T05:16:24;12.10;;;6.95;;
60169;SDS011;46042;49.444;6.862;2023-10-09T05:18:59;12.55;;;7.03;;
60169;SDS011;46042;49.444;6.862;2023-10-09T05:21:30;14.25;;;7.20;;
60169;SDS011;46042;49.444;6.862;2023-10-09T05:24:10;13.38;;;6.53;;
60169;SDS011;46042;49.444;6.862;2023-10-09T05:32:02;15.00;;;8.27;;
60169;SDS011;46042;49.444;6.862;2023-10-09T05:34:31;16.90;;;7.00;;
60169;SDS011;46042;49.444;6.862;2023-10-09T05:37:17;11.30;;;6.95;;
60169;SDS011;46042;49.444;6.862;2023-10-09T05:39:49;10.13;;;6.28;;
60169;SDS011;46042;49.444;6.862;2023-10-09T05:42:45;10.23;;;6.32;;
60169;SDS011;46042;49.444;6.862;2023-10-09T05:45:24;11.65;;;6.28;;
60169;SDS011;46042;49.444;6.862;2023-10-09T05:48:10;16.73;;;6.95;;
60169;SDS011;46042;49.444;6.862;2023-10-09T05:50:40;12.73;;;5.47;;
60169;SDS011;46042;49.444;6.862;2023-10-09T05:53:26;6.45;;;4.60;;
60169;SDS011;46042;49.444;6.862;2023-10-09T05:56:15;8.40;;;4.80;;
60169;SDS011;46042;49.444;6.862;2023-10-09T05:59:01;11.07;;;4.93;;
60169;SDS011;46042;49.444;6.862;2023-10-09T06:01:46;9.35;;;5.20;;
60169;SDS011;46042;49.444;6.862;2023-10-09T06:04:25;13.52;;;5.25;;
60169;SDS011;46042;49.444;6.862;2023-10-09T06:07:12;10.88;;;4.53;;
60169;SDS011;46042;49.444;6.862;2023-10-09T06:09:40;10.00;;;4.10;;
60169;SDS011;46042;49.444;6.862;2023-10-09T06:12:17;17.50;;;5.28;;
60169;SDS011;46042;49.444;6.862;2023-10-09T06:14:59;9.68;;;4.28;;
60169;SDS011;46042;49.444;6.862;2023-10-09T06:17:58;12.50;;;4.22;;
60169;SDS011;46042;49.444;6.862;2023-10-09T06:20:45;8.75;;;4.00;;
60169;SDS011;46042;49.444;6.862;2023-10-09T06:23:31;9.05;;;4.22;;
60169;SDS011;46042;49.444;6.862;2023-10-09T06:26:16;9.93;;;3.72;;
60169;SDS011;46042;49.444;6.862;2023-10-09T06:28:52;6.32;;;3.88;;
60169;SDS011;46042;49.444;6.862;2023-10-09T06:31:45;8.80;;;3.95;;
60169;SDS011;46042;49.444;6.862;2023-10-09T06:34:28;10.63;;;5.93;;
60169;SDS011;46042;49.444;6.862;2023-10-09T06:37:02;6.95;;;3.95;;
60169;SDS011;46042;49.444;6.862;2023-10-09T06:39:55;8.30;;;3.85;;
60169;SDS011;46042;49.444;6.862;2023-10-09T06:42:23;8.07;;;4.63;;
60169;SDS011;46042;49.444;6.862;2023-10-09T06:45:05;14.02;;;6.43;;
60169;SDS011;46042;49.444;6.862;2023-10-09T06:47:35;10.07;;;5.80;;
60169;SDS011;46042;49.444;6.862;2023-10-09T06:52:47;11.80;;;6.15;;
60169;SDS011;46042;49.444;6.862;2023-10-09T06:55:36;14.35;;;6.07;;
60169;SDS011;46042;49.444;6.862;2023-10-09T06:58:18;11.52;;;5.85;;
60169;SDS011;46042;49.444;6.862;2023-10-09T07:00:55;16.15;;;5.40;;
60169;SDS011;46042;49.444;6.862;2023-10-09T07:03:26;13.15;;;6.68;;
60169;SDS011;46042;49.444;6.862;2023-10-09T07:06:09;12.57;;;5.60;;
60169;SDS011;46042;49.444;6.862;2023-10-09T07:08:51;16.27;;;5.95;;
60169;SDS011;46042;49.444;6.862;2023-10-09T07:11:34;16.15;;;5.93;;
60169;SDS011;46042;49.444;6.862;2023-10-09T07:14:14;13.25;;;5.13;;
60169;SDS011;46042;49.444;6.862;2023-10-09T07:16:56;12.30;;;5.60;;
60169;SDS011;46042;49.444;6.862;2023-10-09T07:19:25;9.45;;;4.65;;
60169;SDS011;46042;49.444;6.862;2023-10-09T07:22:01;11.57;;;4.85;;
60169;SDS011;46042;49.444;6.862;2023-10-09T07:24:31;9.35;;;5.00;;
60169;SDS011;46042;49.444;6.862;2023-10-09T07:27:10;14.10;;;5.90;;
60169;SDS011;46042;49.444;6.862;2023-10-09T07:29:40;10.73;;;5.07;;
60169;SDS011;46042;49.444;6.862;2023-10-09T07:32:17;12.15;;;5.38;;
60169;SDS011;46042;49.444;6.862;2023-10-09T07:34:48;7.55;;;4.25;;
60169;SDS011;46042;49.444;6.862;2023-10-09T07:37:23;10.65;;;4.90;;
60169;SDS011;46042;49.444;6.862;2023-10-09T07:39:57;9.52;;;4.53;;
60169;SDS011;46042;49.444;6.862;2023-10-09T07:42:24;7.93;;;4.18;;
60169;SDS011;46042;49.444;6.862;2023-10-09T07:45:10;15.05;;;5.40;;
60169;SDS011;46042;49.444;6.862;2023-10-09T07:47:58;10.38;;;5.22;;
60169;SDS011;46042;49.444;6.862;2023-10-09T07:50:26;11.02;;;4.93;;
60169;SDS011;46042;49.444;6.862;2023-10-09T07:53:05;8.05;;;4.80;;
60169;SDS011;46042;49.444;6.862;2023-10-09T07:55:41;19.95;;;5.53;;
60169;SDS011;46042;49.444;6.862;2023-10-09T07:58:15;12.43;;;5.82;;
60169;SDS011;46042;49.444;6.862;2023-10-09T08:00:42;9.43;;;5.60;;
60169;SDS011;46042;49.444;6.862;2023-10-09T08:03:24;17.63;;;5.75;;
60169;SDS011;46042;49.444;6.862;2023-10-09T08:05:51;10.50;;;5.50;;
60169;SDS011;46042;49.444;6.862;2023-10-09T08:08:20;11.85;;;6.03;;
60169;SDS011;46042;49.444;6.862;2023-10-09T08:11:03;12.55;;;6.35;;
60169;SDS011;46042;49.444;6.862;2023-10-09T08:13:51;15.43;;;7.38;;
60169;SDS011;46042;49.444;6.862;2023-10-09T08:16:27;17.52;;;7.80;;
60169;SDS011;46042;49.444;6.862;2023-10-09T08:19:03;13.18;;;7.43;;
60169;SDS011;46042;49.444;6.862;2023-10-09T08:21:49;11.90;;;7.30;;
60169;SDS011;46042;49.444;6.862;2023-10-09T08:24:55;13.45;;;7.60;;
60169;SDS011;46042;49.444;6.862;2023-10-09T08:27:23;16.48;;;7.22;;
60169;SDS011;46042;49.444;6.862;2023-10-09T08:30:00;19.20;;;7.75;;
60169;SDS011;46042;49.444;6.862;2023-10-09T08:32:44;18.42;;;7.53;;
60169;SDS011;46042;49.444;6.862;2023-10-09T08:35:34;18.48;;;6.82;;
60169;SDS011;46042;49.444;6.862;2023-10-09T08:38:16;15.20;;;7.20;;
60169;SDS011;46042;49.444;6.862;2023-10-09T08:40:53;15.73;;;6.57;;
60169;SDS011;46042;49.444;6.862;2023-10-09T08:43:25;15.18;;;7.43;;
60169;SDS011;46042;49.444;6.862;2023-10-09T08:45:57;19.08;;;7.35;;
60169;SDS011;46042;49.444;6.862;2023-10-09T08:48:29;14.73;;;7.22;;
60169;SDS011;46042;49.444;6.862;2023-10-09T08:50:56;20.13;;;8.27;;
60169;SDS011;46042;49.444;6.862;2023-10-09T08:53:24;12.90;;;6.93;;
60169;SDS011;46042;49.444;6.862;2023-10-09T08:55:54;20.27;;;7.70;;
60169;SDS011;46042;49.444;6.862;2023-10-09T08:58:23;16.08;;;6.63;;
60169;SDS011;46042;49.444;6.862;2023-10-09T09:00:59;15.52;;;6.47;;
60169;SDS011;46042;49.444;6.862;2023-10-09T09:03:34;14.10;;;6.50;;
60169;SDS011;46042;49.444;6.862;2023-10-09T09:06:04;11.45;;;5.57;;
60169;SDS011;46042;49.444;6.862;2023-10-09T09:08:32;12.98;;;5.13;;
60169;SDS011;46042;49.444;6.862;2023-10-09T09:11:04;19.15;;;5.90;;
60169;SDS011;46042;49.444;6.862;2023-10-09T09:16:15;12.43;;;4.93;;
60169;SDS011;46042;49.444;6.862;2023-10-09T09:18:56;17.13;;;5.75;;
60169;SDS011;46042;49.444;6.862;2023-10-09T09:21:29;13.05;;;5.15;;
60169;SDS011;46042;49.444;6.862;2023-10-09T09:24:03;11.57;;;5.57;;
60169;SDS011;46042;49.444;6.862;2023-10-09T09:26:42;19.48;;;5.30;;
60169;SDS011;46042;49.444;6.862;2023-10-09T09:34:46;16.02;;;5.07;;
60169;SDS011;46042;49.444;6.862;2023-10-09T09:37:19;18.73;;;5.93;;
60169;SDS011;46042;49.444;6.862;2023-10-09T09:39:47;14.73;;;5.53;;
60169;SDS011;46042;49.444;6.862;2023-10-09T09:42:21;13.82;;;6.32;;
60169;SDS011;46042;49.444;6.862;2023-10-09T09:44:53;14.95;;;6.00;;
60169;SDS011;46042;49.444;6.862;2023-10-09T09:47:22;16.92;;;5.57;;
60169;SDS011;46042;49.444;6.862;2023-10-09T09:49:56;16.10;;;6.32;;
60169;SDS011;46042;49.444;6.862;2023-10-09T09:52:30;12.27;;;5.18;;
60169;SDS011;46042;49.444;6.862;2023-10-09T09:55:07;11.52;;;5.57;;
60169;SDS011;46042;49.444;6.862;2023-10-09T09:57:44;14.95;;;6.63;;
60169;SDS011;46042;49.444;6.862;2023-10-09T10:00:19;15.30;;;5.80;;
60169;SDS011;46042;49.444;6.862;2023-10-09T10:02:59;17.33;;;6.05;;
60169;SDS011;46042;49.444;6.862;2023-10-09T10:05:32;18.75;;;6.20;;
60169;SDS011;46042;49.444;6.862;2023-10-09T10:08:00;13.48;;;5.35;;
60169;SDS011;46042;49.444;6.862;2023-10-09T10:10:35;11.27;;;4.95;;
60169;SDS011;46042;49.444;6.862;2023-10-09T10:13:14;13.00;;;5.90;;
60169;SDS011;46042;49.444;6.862;2023-10-09T10:15:58;17.48;;;5.32;;
60169;SDS011;46042;49.444;6.862;2023-10-09T10:18:31;11.18;;;6.15;;
60169;SDS011;46042;49.444;6.862;2023-10-09T10:23:40;18.65;;;5.95;;
60169;SDS011;46042;49.444;6.862;2023-10-09T10:26:17;15.73;;;6.32;;
60169;SDS011;46042;49.444;6.862;2023-10-09T10:31:53;18.10;;;5.93;;
60169;SDS011;46042;49.444;6.862;2023-10-09T10:34:51;16.92;;;5.72;;
60169;SDS011;46042;49.444;6.862;2023-10-09T10:40:11;18.40;;;5.28;;
60169;SDS011;46042;49.444;6.862;2023-10-09T10:42:55;13.35;;;5.05;;
60169;SDS011;46042;49.444;6.862;2023-10-09T10:46:05;15.05;;;4.55;;
60169;SDS011;46042;49.444;6.862;2023-10-09T10:49:12;9.60;;;4.38;;
60169;SDS011;46042;49.444;6.862;2023-10-09T10:51:39;16.70;;;4.45;;
60169;SDS011;46042;49.444;6.862;2023-10-09T10:54:07;9.98;;;5.45;;
60169;SDS011;46042;49.444;6.862;2023-10-09T10:57:12;15.00;;;4.90;;
60169;SDS011;46042;49.444;6.862;2023-10-09T11:02:43;16.48;;;6.03;;
60169;SDS011;46042;49.444;6.862;2023-10-09T11:05:15;9.30;;;4.28;;
60169;SDS011;46042;49.444;6.862;2023-10-09T11:07:50;10.80;;;4.30;;
60169;SDS011;46042;49.444;6.862;2023-10-09T11:10:23;12.38;;;4.93;;
60169;SDS011;46042;49.444;6.862;2023-10-09T11:12:55;11.35;;;4.78;;
60169;SDS011;46042;49.444;6.862;2023-10-09T11:15:41;9.85;;;4.05;;
60169;SDS011;46042;49.444;6.862;2023-10-09T11:20:55;15.73;;;4.35;;
60169;SDS011;46042;49.444;6.862;2023-10-09T11:23:30;11.70;;;4.05;;
60169;SDS011;46042;49.444;6.862;2023-10-09T11:26:02;14.48;;;4.32;;
60169;SDS011;46042;49.444;6.862;2023-10-09T11:29:07;9.13;;;4.40;;
60169;SDS011;46042;49.444;6.862;2023-10-09T11:32:02;11.30;;;4.32;;
60169;SDS011;46042;49.444;6.862;2023-10-09T11:34:35;12.80;;;4.85;;
60169;SDS011;46042;49.444;6.862;2023-10-09T11:37:13;7.45;;;4.10;;
60169;SDS011;46042;49.444;6.862;2023-10-09T11:40:04;18.10;;;4.83;;
60169;SDS011;46042;49.444;6.862;2023-10-09T11:42:48;10.75;;;4.72;;
60169;SDS011;46042;49.444;6.862;2023-10-09T11:45:20;7.80;;;4.32;;
60169;SDS011;46042;49.444;6.862;2023-10-09T11:47:55;10.13;;;4.60;;
60169;SDS011;46042;49.444;6.862;2023-10-09T11:50:43;11.70;;;4.53;;
60169;SDS011;46042;49.444;6.862;2023-10-09T11:53:28;11.10;;;5.13;;
60169;SDS011;46042;49.444;6.862;2023-10-09T11:56:06;8.15;;;4.30;;
60169;SDS011;46042;49.444;6.862;2023-10-09T11:58:36;11.95;;;4.78;;
60169;SDS011;46042;49.444;6.862;2023-10-09T12:01:10;9.55;;;4.68;;
60169;SDS011;46042;49.444;6.862;2023-10-09T12:03:44;10.00;;;4.25;;
60169;SDS011;46042;49.444;6.862;2023-10-09T12:06:17;9.65;;;4.22;;
60169;SDS011;46042;49.444;6.862;2023-10-09T12:08:49;8.65;;;5.10;;
60169;SDS011;46042;49.444;6.862;2023-10-09T12:11:16;7.95;;;3.97;;
60169;SDS011;46042;49.444;6.862;2023-10-09T12:13:56;10.02;;;4.60;;
60169;SDS011;46042;49.444;6.862;2023-10-09T12:16:24;9.65;;;4.30;;
60169;SDS011;46042;49.444;6.862;2023-10-09T12:19:00;11.27;;;4.95;;
60169;SDS011;46042;49.444;6.862;2023-10-09T12:21:29;10.15;;;4.45;;
60169;SDS011;46042;49.444;6.862;2023-10-09T12:23:56;11.02;;;4.22;;
60169;SDS011;46042;49.444;6.862;2023-10-09T12:26:38;10.80;;;5.50;;
60169;SDS011;46042;49.444;6.862;2023-10-09T12:29:07;8.75;;;4.10;;
60169;SDS011;46042;49.444;6.862;2023-10-09T12:31:38;12.25;;;4.20;;
60169;SDS011;46042;49.444;6.862;2023-10-09T12:34:04;7.05;;;4.20;;
60169;SDS011;46042;49.444;6.862;2023-10-09T12:36:31;12.80;;;4.78;;
60169;SDS011;46042;49.444;6.862;2023-10-09T12:39:04;14.70;;;4.95;;
60169;SDS011;46042;49.444;6.862;2023-10-09T12:41:32;11.35;;;5.47;;
60169;SDS011;46042;49.444;6.862;2023-10-09T12:44:01;18.52;;;5.47;;
60169;SDS011;46042;49.444;6.862;2023-10-09T12:46:28;11.00;;;5.38;;
60169;SDS011;46042;49.444;6.862;2023-10-09T12:49:04;16.67;;;5.70;;
60169;SDS011;46042;49.444;6.862;2023-10-09T12:51:32;18.42;;;5.78;;
60169;SDS011;46042;49.444;6.862;2023-10-09T12:53:59;11.68;;;4.95;;
60169;SDS011;46042;49.444;6.862;2023-10-09T12:56:28;9.13;;;4.78;;
60169;SDS011;46042;49.444;6.862;2023-10-09T12:59:04;12.57;;;4.97;;
60169;SDS011;46042;49.444;6.862;2023-10-09T13:01:33;9.88;;;4.82;;
60169;SDS011;46042;49.444;6.862;2023-10-09T13:04:13;14.70;;;4.93;;
60169;SDS011;46042;49.444;6.862;2023-10-09T13:06:44;11.32;;;4.63;;
60169;SDS011;46042;49.444;6.862;2023-10-09T13:09:13;13.73;;;4.95;;
60169;SDS011;46042;49.444;6.862;2023-10-09T13:11:44;9.10;;;4.22;;
60169;SDS011;46042;49.444;6.862;2023-10-09T13:14:14;8.23;;;4.50;;
60169;SDS011;46042;49.444;6.862;2023-10-09T13:16:48;8.50;;;4.78;;
60169;SDS011;46042;49.444;6.862;2023-10-09T13:19:19;11.25;;;4.95;;
60169;SDS011;46042;49.444;6.862;2023-10-09T13:21:51;14.57;;;4.85;;
60169;SDS011;46042;49.444;6.862;2023-10-09T13:24:17;10.48;;;4.90;;
60169;SDS011;46042;49.444;6.862;2023-10-09T13:26:50;14.02;;;4.45;;
60169;SDS011;46042;49.444;6.862;2023-10-09T13:29:24;11.13;;;4.05;;
60169;SDS011;46042;49.444;6.862;2023-10-09T13:31:51;11.20;;;4.80;;
60169;SDS011;46042;49.444;6.862;2023-10-09T13:34:29;9.00;;;4.47;;
60169;SDS011;46042;49.444;6.862;2023-10-09T13:36:56;10.07;;;4.70;;
60169;SDS011;46042;49.444;6.862;2023-10-09T13:39:25;13.73;;;4.82;;
60169;SDS011;46042;49.444;6.862;2023-10-09T13:41:57;10.52;;;4.18;;
60169;SDS011;46042;49.444;6.862;2023-10-09T13:44:29;7.70;;;4.60;;
60169;SDS011;46042;49.444;6.862;2023-10-09T13:47:01;14.68;;;4.90;;
60169;SDS011;46042;49.444;6.862;2023-10-09T13:49:32;13.40;;;4.50;;
60169;SDS011;46042;49.444;6.862;2023-10-09T13:52:00;7.57;;;4.72;;
60169;SDS011;46042;49.444;6.862;2023-10-09T13:54:28;11.10;;;4.40;;
60169;SDS011;46042;49.444;6.862;2023-10-09T13:56:59;14.32;;;4.68;;
60169;SDS011;46042;49.444;6.862;2023-10-09T13:59:26;12.32;;;4.97;;
60169;SDS011;46042;49.444;6.862;2023-10-09T14:01:53;7.57;;;4.50;;
60169;SDS011;46042;49.444;6.862;2023-10-09T14:04:22;7.35;;;4.18;;
60169;SDS011;46042;49.444;6.862;2023-10-09T14:06:49;11.15;;;4.18;;
60169;SDS011;46042;49.444;6.862;2023-10-09T14:09:28;12.68;;;4.45;;
60169;SDS011;46042;49.444;6.862;2023-10-09T14:11:58;16.77;;;5.05;;
60169;SDS011;46042;49.444;6.862;2023-10-09T14:14:37;11.55;;;4.65;;
60169;SDS011;46042;49.444;6.862;2023-10-09T14:17:17;12.07;;;4.63;;
60169;SDS011;46042;49.444;6.862;2023-10-09T14:19:56;14.40;;;5.07;;
60169;SDS011;46042;49.444;6.862;2023-10-09T14:22:42;8.48;;;4.93;;
60169;SDS011;46042;49.444;6.862;2023-10-09T14:25:12;8.82;;;4.57;;
60169;SDS011;46042;49.444;6.862;2023-10-09T14:27:42;15.38;;;4.85;;
60169;SDS011;46042;49.444;6.862;2023-10-09T14:30:08;8.90;;;4.32;;
60169;SDS011;46042;49.444;6.862;2023-10-09T14:35:17;16.17;;;4.53;;
60169;SDS011;46042;49.444;6.862;2023-10-09T14:37:48;7.75;;;4.15;;
60169;SDS011;46042;49.444;6.862;2023-10-09T14:40:14;12.07;;;4.25;;
60169;SDS011;46042;49.444;6.862;2023-10-09T14:42:47;13.88;;;4.53;;
60169;SDS011;46042;49.444;6.862;2023-10-09T14:45:23;11.98;;;4.70;;
60169;SDS011;46042;49.444;6.862;2023-10-09T14:47:55;10.95;;;4.50;;
60169;SDS011;46042;49.444;6.862;2023-10-09T14:50:22;12.67;;;4.53;;
60169;SDS011;46042;49.444;6.862;2023-10-09T14:52:50;14.73;;;4.88;;
60169;SDS011;46042;49.444;6.862;2023-10-09T14:55:17;10.18;;;4.65;;
60169;SDS011;46042;49.444;6.862;2023-10-09T14:57:48;10.75;;;5.13;;
60169;SDS011;46042;49.444;6.862;2023-10-09T15:02:50;11.20;;;4.80;;
60169;SDS011;46042;49.444;6.862;2023-10-09T15:05:18;8.18;;;4.75;;
60169;SDS011;46042;49.444;6.862;2023-10-09T15:07:45;13.18;;;4.22;;
60169;SDS011;46042;49.444;6.862;2023-10-09T15:10:13;13.50;;;4.85;;
60169;SDS011;46042;49.444;6.862;2023-10-09T15:12:42;10.35;;;5.00;;
60169;SDS011;46042;49.444;6.862;2023-10-09T15:15:09;13.80;;;5.53;;
60169;SDS011;46042;49.444;6.862;2023-10-09T15:20:11;7.57;;;4.00;;
60169;SDS011;46042;49.444;6.862;2023-10-09T15:22:41;9.65;;;4.90;;
60169;SDS011;46042;49.444;6.862;2023-10-09T15:25:09;10.63;;;4.55;;
60169;SDS011;46042;49.444;6.862;2023-10-09T15:27:41;11.45;;;4.55;;
60169;SDS011;46042;49.444;6.862;2023-10-09T15:30:09;11.20;;;5.20;;
60169;SDS011;46042;49.444;6.862;2023-10-09T15:32:40;13.15;;;5.03;;
60169;SDS011;46042;49.444;6.862;2023-10-09T15:35:08;15.10;;;4.63;;
60169;SDS011;46042;49.444;6.862;2023-10-09T15:37:42;7.85;;;4.60;;
60169;SDS011;46042;49.444;6.862;2023-10-09T15:40:09;9.02;;;4.38;;
60169;SDS011;46042;49.444;6.862;2023-10-09T15:42:44;9.43;;;4.80;;
60169;SDS011;46042;49.444;6.862;2023-10-09T15:45:17;7.57;;;4.15;;
60169;SDS011;46042;49.444;6.862;2023-10-09T15:47:47;15.00;;;4.70;;
60169;SDS011;46042;49.444;6.862;2023-10-09T15:50:14;11.07;;;4.88;;
60169;SDS011;46042;49.444;6.862;2023-10-09T15:52:41;9.45;;;4.28;;
60169;SDS011;46042;49.444;6.862;2023-10-09T15:55:08;12.23;;;5.18;;
60169;SDS011;46042;49.444;6.862;2023-10-09T15:57:40;10.80;;;4.72;;
60169;SDS011;46042;49.444;6.862;2023-10-09T16:00:08;11.38;;;4.70;;
60169;SDS011;46042;49.444;6.862;2023-10-09T16:02:47;11.23;;;4.90;;
60169;SDS011;46042;49.444;6.862;2023-10-09T16:05:14;11.80;;;5.45;;